createdAt,value
2022-09-23T00:00:57.896Z,2.80
2022-09-23T00:03:24.383Z,2.80
2022-09-23T00:05:59.127Z,2.50
2022-09-23T00:08:25.691Z,2.57
2022-09-23T00:10:52.230Z,2.40
2022-09-23T00:13:18.880Z,3.50
2022-09-23T00:15:46.809Z,2.97
2022-09-23T00:18:13.457Z,2.30
2022-09-23T00:20:40.538Z,2.20
2022-09-23T00:23:07.368Z,2.53
2022-09-23T00:25:34.005Z,2.53
2022-09-23T00:28:00.564Z,4.67
2022-09-23T00:30:27.344Z,2.60
2022-09-23T00:32:54.027Z,2.30
2022-09-23T00:35:20.568Z,2.43
2022-09-23T00:37:47.059Z,2.37
2022-09-23T00:40:13.744Z,2.43
2022-09-23T00:42:48.146Z,2.40
2022-09-23T00:45:15.914Z,2.60
2022-09-23T00:47:54.952Z,2.50
2022-09-23T00:50:25.998Z,2.67
2022-09-23T00:52:56.817Z,4.03
2022-09-23T00:55:28.016Z,2.83
2022-09-23T00:57:56.750Z,2.63
2022-09-23T01:00:23.735Z,2.57
2022-09-23T01:02:51.284Z,2.40
2022-09-23T01:05:18.399Z,2.67
2022-09-23T01:07:45.912Z,2.40
2022-09-23T01:10:16.275Z,2.30
2022-09-23T01:12:58.149Z,2.43
2022-09-23T01:15:31.181Z,2.23
2022-09-23T01:18:04.384Z,3.03
2022-09-23T01:20:36.894Z,2.30
2022-09-23T01:23:37.808Z,2.57
2022-09-23T01:26:16.486Z,2.40
2022-09-23T01:29:04.746Z,2.63
2022-09-23T01:31:53.095Z,2.70
2022-09-23T01:34:29.049Z,4.07
2022-09-23T01:37:08.784Z,4.57
2022-09-23T01:39:40.279Z,2.70
2022-09-23T01:42:17.322Z,4.00
2022-09-23T01:44:49.847Z,3.47
2022-09-23T01:47:38.516Z,2.30
2022-09-23T01:50:41.661Z,2.60
2022-09-23T01:53:29.573Z,6.60
2022-09-23T01:56:05.114Z,2.67
2022-09-23T01:58:56.812Z,2.50
2022-09-23T02:02:00.319Z,3.00
2022-09-23T02:04:39.719Z,2.53
2022-09-23T02:07:15.207Z,2.97
2022-09-23T02:09:45.593Z,2.57
2022-09-23T02:12:17.453Z,3.43
2022-09-23T02:14:56.477Z,3.07
2022-09-23T02:17:34.806Z,3.10
2022-09-23T02:20:07.813Z,2.40
2022-09-23T02:23:28.262Z,2.60
2022-09-23T02:26:17.231Z,2.93
2022-09-23T02:28:55.710Z,4.10
2022-09-23T02:31:37.268Z,4.57
2022-09-23T02:34:06.923Z,3.70
2022-09-23T02:36:49.686Z,3.67
2022-09-23T02:39:18.307Z,3.90
2022-09-23T02:42:07.029Z,3.60
2022-09-23T02:44:34.051Z,4.20
2022-09-23T02:47:00.842Z,3.47
2022-09-23T02:49:29.554Z,2.87
2022-09-23T02:51:57.456Z,5.83
2022-09-23T02:54:28.971Z,3.90
2022-09-23T02:56:55.646Z,2.80
2022-09-23T02:59:23.799Z,2.80
2022-09-23T03:02:16.820Z,3.90
2022-09-23T03:05:05.643Z,2.80
2022-09-23T03:07:50.813Z,5.97
2022-09-23T03:10:39.027Z,5.23
2022-09-23T03:13:35.388Z,3.33
2022-09-23T03:16:16.702Z,6.00
2022-09-23T03:18:56.758Z,3.70
2022-09-23T03:21:32.262Z,3.50
2022-09-23T03:24:02.837Z,3.63
2022-09-23T03:26:32.600Z,9.83
2022-09-23T03:29:04.022Z,4.30
2022-09-23T03:31:32.551Z,3.60
2022-09-23T03:34:01.484Z,3.07
2022-09-23T03:36:53.603Z,3.20
2022-09-23T03:39:40.861Z,3.83
2022-09-23T03:42:16.768Z,3.47
2022-09-23T03:44:45.667Z,4.17
2022-09-23T03:47:14.636Z,5.80
2022-09-23T03:49:44.323Z,3.93
2022-09-23T03:52:11.229Z,8.73
2022-09-23T03:54:37.805Z,4.70
2022-09-23T03:57:04.381Z,6.90
2022-09-23T03:59:31.449Z,2.77
2022-09-23T04:01:59.612Z,3.80
2022-09-23T04:04:32.416Z,3.73
2022-09-23T04:06:58.898Z,3.43
2022-09-23T04:09:25.602Z,4.20
2022-09-23T04:11:52.846Z,6.50
2022-09-23T04:14:20.887Z,11.87
2022-09-23T04:16:48.399Z,12.33
2022-09-23T04:19:15.793Z,6.83
2022-09-23T04:21:44.139Z,5.27
2022-09-23T04:24:11.659Z,5.00
2022-09-23T04:26:38.671Z,4.20
2022-09-23T04:29:06.206Z,5.27
2022-09-23T04:31:34.437Z,8.70
2022-09-23T04:34:01.190Z,5.93
2022-09-23T04:36:29.253Z,6.90
2022-09-23T04:38:56.493Z,7.53
2022-09-23T04:41:23.052Z,6.53
2022-09-23T04:43:49.614Z,6.43
2022-09-23T04:46:16.506Z,6.53
2022-09-23T04:48:43.501Z,9.43
2022-09-23T04:51:18.134Z,5.60
2022-09-23T04:53:46.818Z,9.13
2022-09-23T04:56:24.721Z,11.20
2022-09-23T04:58:51.528Z,8.50
2022-09-23T05:01:20.130Z,8.07
2022-09-23T05:03:46.909Z,13.73
2022-09-23T05:06:14.493Z,8.73
2022-09-23T05:08:42.274Z,10.10
2022-09-23T05:11:09.127Z,7.63
2022-09-23T05:13:35.652Z,15.00
2022-09-23T05:16:04.761Z,8.27
2022-09-23T05:18:33.193Z,8.63
2022-09-23T05:20:59.864Z,9.93
2022-09-23T05:23:27.505Z,8.33
2022-09-23T05:26:05.992Z,6.70
2022-09-23T05:28:34.356Z,11.40
2022-09-23T05:31:20.608Z,10.80
2022-09-23T05:33:52.894Z,10.10
2022-09-23T05:36:21.385Z,8.97
2022-09-23T05:38:49.953Z,7.33
2022-09-23T05:41:18.418Z,9.57
2022-09-23T05:43:45.135Z,7.97
2022-09-23T05:46:14.795Z,9.53
2022-09-23T05:48:42.467Z,14.53
2022-09-23T05:51:12.879Z,12.87
2022-09-23T05:53:41.000Z,9.63
2022-09-23T05:56:07.962Z,14.23
2022-09-23T05:58:34.740Z,12.23
2022-09-23T06:01:01.233Z,14.33
2022-09-23T06:03:27.821Z,16.70
2022-09-23T06:05:55.988Z,12.20
2022-09-23T06:08:23.602Z,10.03
2022-09-23T06:10:54.468Z,10.10
2022-09-23T06:13:21.257Z,11.43
2022-09-23T06:15:48.295Z,14.07
2022-09-23T06:18:15.036Z,9.30
2022-09-23T06:20:41.546Z,13.70
2022-09-23T06:23:10.993Z,8.03
2022-09-23T06:25:38.581Z,8.50
2022-09-23T06:28:05.804Z,9.60
2022-09-23T06:30:35.008Z,9.20
2022-09-23T06:33:02.365Z,8.27
2022-09-23T06:35:29.276Z,8.50
2022-09-23T06:37:56.015Z,15.27
2022-09-23T06:40:22.932Z,11.70
2022-09-23T06:43:00.269Z,8.33
2022-09-23T06:45:27.802Z,7.53
2022-09-23T06:47:58.390Z,8.67
2022-09-23T06:50:26.669Z,12.00
2022-09-23T06:52:57.139Z,6.80
2022-09-23T06:55:24.750Z,9.47
2022-09-23T06:57:51.473Z,6.00
2022-09-23T07:00:18.440Z,8.10
2022-09-23T07:02:45.423Z,11.77
2022-09-23T07:05:13.056Z,10.80
2022-09-23T07:07:39.697Z,9.03
2022-09-23T07:10:07.032Z,11.57
2022-09-23T07:12:34.161Z,7.97
2022-09-23T07:15:00.946Z,10.47
2022-09-23T07:17:27.792Z,7.73
2022-09-23T07:19:57.423Z,10.03
2022-09-23T07:22:25.761Z,6.53
2022-09-23T07:24:56.055Z,5.93
2022-09-23T07:27:27.540Z,5.80
2022-09-23T07:29:55.066Z,9.47
2022-09-23T07:32:23.050Z,10.97
2022-09-23T07:34:49.867Z,9.87
2022-09-23T07:37:17.657Z,12.03
2022-09-23T07:39:44.902Z,8.77
2022-09-23T07:42:13.299Z,13.97
2022-09-23T07:44:43.280Z,11.27
2022-09-23T07:47:09.855Z,10.63
2022-09-23T07:49:36.719Z,9.00
2022-09-23T07:52:04.885Z,9.30
2022-09-23T07:54:31.912Z,9.43
2022-09-23T07:56:59.237Z,12.83
2022-09-23T07:59:27.353Z,10.37
2022-09-23T08:01:55.166Z,8.47
2022-09-23T08:04:32.786Z,6.60
2022-09-23T08:07:01.379Z,10.90
2022-09-23T08:09:34.347Z,6.87
2022-09-23T08:12:01.582Z,12.47
2022-09-23T08:14:28.191Z,12.30
2022-09-23T08:16:54.846Z,14.07
2022-09-23T08:19:21.577Z,13.73
2022-09-23T08:21:48.081Z,10.20
2022-09-23T08:24:19.827Z,12.60
2022-09-23T08:26:48.393Z,9.50
2022-09-23T08:29:19.262Z,11.75
2022-09-23T08:31:46.198Z,13.35
2022-09-23T08:34:13.315Z,12.77
2022-09-23T08:36:39.875Z,9.93
2022-09-23T08:39:06.879Z,9.63
2022-09-23T08:42:10.923Z,10.60
2022-09-23T08:44:49.498Z,13.70
2022-09-23T08:47:23.421Z,11.15
2022-09-23T08:50:07.139Z,11.38
2022-09-23T08:52:52.763Z,9.90
2022-09-23T08:55:20.860Z,7.97
2022-09-23T08:58:26.841Z,9.00
2022-09-23T09:01:02.585Z,8.30
2022-09-23T09:03:53.915Z,8.75
2022-09-23T09:06:28.270Z,8.85
2022-09-23T09:08:59.351Z,9.32
2022-09-23T09:11:33.336Z,9.57
2022-09-23T09:14:38.582Z,11.73
2022-09-23T09:17:10.267Z,11.45
2022-09-23T09:19:53.457Z,8.77
2022-09-23T09:25:15.087Z,9.05
2022-09-23T09:27:42.210Z,5.70
2022-09-23T09:30:14.837Z,9.38
2022-09-23T09:33:03.404Z,9.40
2022-09-23T09:35:43.194Z,11.75
2022-09-23T09:38:09.707Z,8.55
2022-09-23T09:40:44.552Z,10.95
2022-09-23T09:43:25.637Z,11.85
2022-09-23T09:46:26.649Z,7.63
2022-09-23T09:49:00.758Z,8.65
2022-09-23T09:51:29.369Z,8.68
2022-09-23T09:54:17.144Z,10.18
2022-09-23T09:56:44.840Z,10.25
2022-09-23T09:59:18.122Z,10.63
2022-09-23T10:01:46.215Z,10.40
2022-09-23T10:04:23.760Z,9.35
2022-09-23T10:07:13.997Z,8.73
2022-09-23T10:09:48.808Z,8.75
2022-09-23T10:12:18.658Z,6.63
2022-09-23T10:14:50.589Z,5.97
2022-09-23T10:17:31.883Z,8.30
2022-09-23T10:20:01.035Z,8.30
2022-09-23T10:22:32.850Z,6.60
2022-09-23T10:25:07.463Z,6.75
2022-09-23T10:27:36.475Z,7.90
2022-09-23T10:30:23.893Z,7.30
2022-09-23T10:32:53.184Z,8.73
2022-09-23T10:35:24.550Z,6.15
2022-09-23T10:38:00.019Z,5.82
2022-09-23T10:40:48.823Z,6.13
2022-09-23T10:43:40.634Z,6.20
2022-09-23T10:46:36.005Z,5.90
2022-09-23T10:49:27.412Z,6.85
2022-09-23T10:52:32.067Z,6.45
2022-09-23T10:55:10.769Z,5.28
2022-09-23T10:57:57.741Z,5.43
2022-09-23T11:00:46.497Z,4.90
2022-09-23T11:03:37.062Z,3.95
2022-09-23T11:06:28.418Z,4.40
2022-09-23T11:09:18.879Z,6.32
2022-09-23T11:11:51.396Z,5.97
2022-09-23T11:14:41.202Z,2.33
2022-09-23T11:17:25.935Z,5.03
2022-09-23T11:20:03.657Z,4.93
2022-09-23T11:22:53.356Z,5.32
2022-09-23T11:25:41.035Z,4.93
2022-09-23T11:28:25.427Z,4.15
2022-09-23T11:31:07.271Z,4.82
2022-09-23T11:34:09.617Z,3.92
2022-09-23T11:36:47.183Z,5.22
2022-09-23T11:39:29.063Z,5.10
2022-09-23T11:41:59.888Z,5.20
2022-09-23T11:44:32.150Z,4.07
2022-09-23T11:47:08.212Z,4.72
2022-09-23T11:49:42.327Z,4.57
2022-09-23T11:52:19.595Z,4.95
2022-09-23T11:54:52.969Z,3.47
2022-09-23T11:57:42.636Z,4.75
2022-09-23T12:00:19.190Z,4.35
2022-09-23T12:03:04.555Z,3.25
2022-09-23T12:05:40.581Z,4.38
2022-09-23T12:08:12.134Z,3.28
2022-09-23T12:10:58.914Z,3.88
2022-09-23T12:13:41.789Z,3.47
2022-09-23T12:16:26.904Z,4.35
2022-09-23T12:18:53.377Z,3.60
2022-09-23T12:22:08.149Z,2.05
2022-09-23T12:25:07.877Z,3.38
2022-09-23T12:27:45.302Z,2.80
2022-09-23T12:30:25.172Z,3.80
2022-09-23T12:32:51.999Z,3.15
2022-09-23T12:35:41.314Z,3.72
2022-09-23T12:38:25.802Z,2.58
2022-09-23T12:40:56.373Z,3.20
2022-09-23T12:43:31.596Z,2.95
2022-09-23T12:46:18.958Z,2.35
2022-09-23T12:48:58.030Z,2.75
2022-09-23T12:51:26.936Z,2.42
2022-09-23T12:53:55.265Z,2.45
2022-09-23T12:56:43.370Z,2.55
2022-09-23T12:59:31.914Z,3.63
2022-09-23T13:02:30.534Z,3.78
2022-09-23T13:05:34.157Z,2.63
2022-09-23T13:08:12.415Z,3.40
2022-09-23T13:10:54.356Z,2.30
2022-09-23T13:13:26.709Z,2.75
2022-09-23T13:15:54.953Z,3.38
2022-09-23T13:18:21.387Z,3.50
2022-09-23T13:20:52.858Z,2.85
2022-09-23T13:23:27.864Z,2.80
2022-09-23T13:25:57.638Z,1.90
2022-09-23T13:28:36.842Z,2.47
2022-09-23T13:31:15.292Z,3.10
2022-09-23T13:33:53.136Z,1.70
2022-09-23T13:36:21.172Z,1.77
2022-09-23T13:38:48.311Z,2.13
2022-09-23T13:41:20.605Z,2.65
2022-09-23T13:43:53.571Z,1.98
2022-09-23T13:46:23.550Z,2.95
2022-09-23T13:48:54.866Z,3.35
2022-09-23T13:51:31.629Z,2.75
2022-09-23T13:54:01.488Z,3.83
2022-09-23T13:56:31.584Z,3.22
2022-09-23T13:59:27.214Z,3.42
2022-09-23T14:02:16.881Z,3.15
2022-09-23T14:04:44.605Z,2.75
2022-09-23T14:07:14.193Z,4.07
2022-09-23T14:09:46.417Z,2.95
2022-09-23T14:12:13.251Z,3.67
2022-09-23T14:14:41.939Z,3.38
2022-09-23T14:17:10.176Z,3.80
2022-09-23T14:19:37.323Z,3.22
2022-09-23T14:22:03.950Z,2.55
2022-09-23T14:24:34.535Z,2.85
2022-09-23T14:27:04.453Z,3.63
2022-09-23T14:29:33.960Z,4.05
2022-09-23T14:32:07.674Z,5.13
2022-09-23T14:34:53.694Z,3.05
2022-09-23T14:37:46.313Z,5.03
2022-09-23T14:40:18.838Z,2.90
2022-09-23T14:42:48.846Z,4.05
2022-09-23T14:45:22.813Z,3.65
2022-09-23T14:48:01.127Z,4.13
2022-09-23T14:50:39.324Z,4.13
2022-09-23T14:53:41.301Z,2.83
2022-09-23T14:56:08.819Z,3.58
2022-09-23T14:58:53.051Z,4.68
2022-09-23T15:01:32.648Z,1.65
2022-09-23T15:04:09.378Z,2.80
2022-09-23T15:06:42.836Z,3.33
2022-09-23T15:09:17.004Z,3.92
2022-09-23T15:11:43.592Z,5.05
2022-09-23T15:14:36.226Z,5.47
2022-09-23T15:16:57.505Z,2.67
2022-09-23T15:19:24.218Z,5.53
2022-09-23T15:21:52.952Z,5.15
2022-09-23T15:24:41.668Z,5.90
2022-09-23T15:27:24.795Z,5.15
2022-09-23T15:29:52.599Z,6.38
2022-09-23T15:32:19.728Z,3.75
2022-09-23T15:34:49.272Z,3.90
2022-09-23T15:37:15.775Z,3.17
2022-09-23T15:39:43.033Z,4.57
2022-09-23T15:42:10.284Z,4.15
2022-09-23T15:44:38.018Z,3.92
2022-09-23T15:47:04.992Z,5.97
2022-09-23T15:49:34.974Z,4.07
2022-09-23T15:52:04.104Z,2.42
2022-09-23T15:54:32.524Z,3.30
2022-09-23T15:57:00.518Z,6.57
2022-09-23T15:59:28.800Z,3.88
2022-09-23T16:01:56.605Z,3.65
2022-09-23T16:04:23.721Z,5.22
2022-09-23T16:06:50.438Z,3.75
2022-09-23T16:09:16.902Z,4.47
2022-09-23T16:11:46.348Z,5.90
2022-09-23T16:14:17.601Z,5.20
2022-09-23T16:16:48.046Z,4.10
2022-09-23T16:19:16.247Z,3.38
2022-09-23T16:21:43.224Z,3.13
2022-09-23T16:24:25.957Z,2.90
2022-09-23T16:26:59.818Z,2.72
2022-09-23T16:29:27.588Z,5.07
2022-09-23T16:31:55.718Z,5.63
2022-09-23T16:34:22.339Z,5.72
2022-09-23T16:36:49.044Z,6.78
2022-09-23T16:39:15.880Z,5.78
2022-09-23T16:41:43.565Z,3.60
2022-09-23T16:44:12.475Z,7.78
2022-09-23T16:46:42.947Z,3.35
2022-09-23T16:49:12.102Z,7.63
2022-09-23T16:51:39.977Z,8.82
2022-09-23T16:54:11.990Z,3.67
2022-09-23T16:56:44.386Z,4.43
2022-09-23T16:59:15.104Z,8.82
2022-09-23T17:02:00.468Z,7.32
2022-09-23T17:04:27.741Z,6.65
2022-09-23T17:06:54.432Z,4.82
2022-09-23T17:09:24.670Z,8.35
2022-09-23T17:12:15.619Z,6.80
2022-09-23T17:14:43.207Z,4.00
2022-09-23T17:17:09.722Z,9.18
2022-09-23T17:19:38.160Z,4.38
2022-09-23T17:22:04.705Z,3.33
2022-09-23T17:24:31.400Z,5.00
2022-09-23T17:26:58.979Z,4.43
2022-09-23T17:29:26.883Z,4.55
2022-09-23T17:31:54.210Z,6.25
2022-09-23T17:34:20.828Z,5.50
2022-09-23T17:36:47.402Z,5.70
2022-09-23T17:39:14.078Z,5.05
2022-09-23T17:41:42.797Z,4.63
2022-09-23T17:44:11.360Z,7.22
2022-09-23T17:46:37.912Z,3.67
2022-09-23T17:49:04.860Z,5.38
2022-09-23T17:51:31.519Z,12.52
2022-09-23T17:53:58.035Z,5.63
2022-09-23T17:56:26.391Z,4.68
2022-09-23T17:58:53.957Z,5.68
2022-09-23T18:01:23.319Z,4.15
2022-09-23T18:03:57.913Z,6.05
2022-09-23T18:06:26.948Z,4.80
2022-09-23T18:08:53.671Z,3.92
2022-09-23T18:11:29.131Z,8.38
2022-09-23T18:13:58.410Z,7.32
2022-09-23T18:16:27.535Z,4.97
2022-09-23T18:18:56.208Z,3.97
2022-09-23T18:21:24.594Z,4.78
2022-09-23T18:23:51.613Z,8.18
2022-09-23T18:26:20.890Z,4.90
2022-09-23T18:28:48.162Z,9.70
2022-09-23T18:31:16.277Z,6.72
2022-09-23T18:33:42.957Z,9.98
2022-09-23T18:36:10.092Z,10.10
2022-09-23T18:38:36.754Z,9.63
2022-09-23T18:41:03.369Z,6.25
2022-09-23T18:43:41.425Z,6.47
2022-09-23T18:46:15.276Z,5.35
2022-09-23T18:49:01.528Z,7.75
2022-09-23T18:51:29.460Z,6.75
2022-09-23T18:54:01.982Z,7.68
2022-09-23T18:56:49.646Z,8.10
2022-09-23T18:59:19.601Z,7.68
2022-09-23T19:01:48.579Z,9.65
2022-09-23T19:04:18.595Z,6.40
2022-09-23T19:06:45.652Z,11.10
2022-09-23T19:09:12.346Z,16.83
2022-09-23T19:11:39.513Z,9.23
2022-09-23T19:14:10.939Z,6.63
2022-09-23T19:16:39.238Z,6.40
2022-09-23T19:19:06.105Z,8.65
2022-09-23T19:21:33.512Z,18.88
2022-09-23T19:24:05.575Z,13.13
2022-09-23T19:26:37.840Z,8.77
2022-09-23T19:29:06.136Z,10.05
2022-09-23T19:31:36.940Z,7.28
2022-09-23T19:34:10.763Z,13.88
2022-09-23T19:36:39.584Z,16.25
2022-09-23T19:39:16.962Z,14.45
2022-09-23T19:41:43.856Z,7.38
2022-09-23T19:44:10.439Z,18.58
2022-09-23T19:46:38.989Z,18.83
2022-09-23T19:49:07.266Z,11.45
2022-09-23T19:51:34.851Z,14.23
2022-09-23T19:54:03.319Z,8.52
2022-09-23T19:56:31.958Z,13.50
2022-09-23T19:58:59.402Z,10.50
2022-09-23T20:01:27.773Z,15.40
2022-09-23T20:03:54.427Z,10.43
2022-09-23T20:06:21.772Z,15.80
2022-09-23T20:08:49.477Z,16.02
2022-09-23T20:11:18.973Z,19.75
2022-09-23T20:13:50.045Z,17.08
2022-09-23T20:16:19.710Z,19.10
2022-09-23T20:18:47.234Z,24.20
2022-09-23T20:21:15.102Z,17.52
2022-09-23T20:23:42.340Z,16.80
2022-09-23T20:26:29.300Z,11.63
2022-09-23T20:28:56.005Z,9.77
2022-09-23T20:31:23.516Z,17.27
2022-09-23T20:33:58.311Z,18.00
2022-09-23T20:36:26.729Z,12.13
2022-09-23T20:38:57.474Z,17.13
2022-09-23T20:41:23.996Z,10.90
2022-09-23T20:43:54.727Z,12.85
2022-09-23T20:46:24.199Z,18.70
2022-09-23T20:48:50.872Z,15.85
2022-09-23T20:51:17.893Z,7.00
2022-09-23T20:53:45.724Z,10.38
2022-09-23T20:56:13.389Z,17.75
2022-09-23T20:58:40.288Z,15.50
2022-09-23T21:01:11.576Z,6.55
2022-09-23T21:03:40.294Z,20.67
2022-09-23T21:06:08.685Z,10.73
2022-09-23T21:08:36.842Z,11.23
2022-09-23T21:11:09.257Z,12.13
2022-09-23T21:13:35.817Z,11.07
2022-09-23T21:16:12.238Z,19.83
2022-09-23T21:18:38.879Z,14.55
2022-09-23T21:21:06.343Z,12.95
2022-09-23T21:23:34.915Z,18.90
2022-09-23T21:26:11.810Z,13.07
2022-09-23T21:28:40.740Z,18.85
2022-09-23T21:31:28.327Z,9.32
2022-09-23T21:33:56.556Z,21.13
2022-09-23T21:36:27.374Z,12.98
2022-09-23T21:38:55.505Z,8.05
2022-09-23T21:41:22.409Z,16.10
2022-09-23T21:43:49.733Z,21.38
2022-09-23T21:46:21.261Z,13.07
2022-09-23T21:48:52.868Z,19.50
2022-09-23T21:51:23.203Z,10.32
2022-09-23T21:53:49.808Z,14.40
2022-09-23T21:56:20.889Z,16.15
2022-09-23T21:58:48.232Z,13.73
2022-09-23T22:01:17.640Z,12.57
2022-09-23T22:03:48.842Z,21.33
2022-09-23T22:06:20.323Z,23.02
2022-09-23T22:08:52.391Z,18.33
2022-09-23T22:11:40.468Z,16.05
2022-09-23T22:14:09.633Z,17.35
2022-09-23T22:16:36.906Z,16.67
2022-09-23T22:19:06.903Z,21.92
2022-09-23T22:21:36.583Z,17.70
2022-09-23T22:24:05.445Z,19.23
2022-09-23T22:26:34.581Z,20.30
2022-09-23T22:29:19.734Z,21.08
2022-09-23T22:32:04.613Z,16.40
2022-09-23T22:34:49.110Z,18.48
2022-09-23T22:37:18.809Z,17.58
2022-09-23T22:39:45.738Z,19.13
2022-09-23T22:42:16.171Z,29.42
2022-09-23T22:44:42.683Z,18.73
2022-09-23T22:47:10.309Z,28.33
2022-09-23T22:49:37.044Z,27.55
2022-09-23T22:52:07.057Z,26.58
2022-09-23T22:54:34.328Z,22.00
2022-09-23T22:57:03.300Z,19.75
2022-09-23T22:59:30.026Z,21.98
2022-09-23T23:01:57.224Z,20.13
2022-09-23T23:04:23.835Z,25.80
2022-09-23T23:06:50.323Z,30.20
2022-09-23T23:09:18.442Z,23.98
2022-09-23T23:11:45.481Z,30.70
2022-09-23T23:14:14.338Z,19.38
2022-09-23T23:16:40.926Z,21.50
2022-09-23T23:19:13.201Z,21.63
2022-09-23T23:21:43.352Z,27.67
2022-09-23T23:24:22.239Z,26.35
2022-09-23T23:26:49.587Z,25.15
2022-09-23T23:29:18.139Z,25.00
2022-09-23T23:31:44.972Z,23.75
2022-09-23T23:34:13.676Z,24.67
2022-09-23T23:36:41.506Z,22.20
2022-09-23T23:39:08.112Z,20.02
2022-09-23T23:41:34.692Z,18.25
2022-09-23T23:44:01.637Z,22.73
2022-09-23T23:46:30.354Z,17.02
2022-09-23T23:48:58.171Z,20.33
2022-09-23T23:51:28.509Z,22.20
2022-09-23T23:53:55.998Z,17.05
2022-09-23T23:56:24.779Z,15.93
2022-09-23T23:58:59.885Z,15.73
